Endeavor CRJ9 at Lexington on May 19th 2018, runway excursion on landing

Last Update: May 19, 2018 / 23:54:45 GMT/Zulu time

Bookmark this article
Incident Facts

Date of incident
May 19, 2018

Classification
Incident

Flight number
DL-3359

Aircraft Registration
N916XJ

ICAO Type Designator
CRJ9

Airport ICAO Code
KLEX

An Endeavor Canadair CRJ-900 on behalf of Delta Airlines, registration N916XJ performing flight DL-3359 from Atlanta,GA to Lexington,KY (USA) with 73 passengers and 4 crew, performed an ILS approach to runway 22, a windshear alert (15 knots loss) was in effect, ATC reported moderate precipitation at the time after there had been heavy precipitation earlier while the aircraft was about to intercept the localizer. The crew reported on final approach they were pretty much in the clear, light to moderate rain, no windshear, tower advised there was heavy precipitation coming in about 1.5nm from the aerodrome. The aircraft landed on Lexington's runway 22 at 13:13L (17:13Z), the crew then advised they were just on the grass near taxiway A1 (last exit runway 22) and could not move, no other issues. Tower queried whether they were off the side of the runway or past the runway end, the crew reported again they were in the grass near A1. Emergency services responded and found the aircraft off the left edge of the runway short of taxiway A1 (between A2 and A1).

The airport was closed while the passengers disembarked onto soft ground via stairs and were bussed to the terminal.

Lexington Airport released a statement by Endeavor: "Upon landing in Lexington, KY., Endeavor Air flight 3359 from Atlanta, operating as Delta Connection, turned off the active runway and came to a stop in the grassy area between taxiways A2 and A1."

Related NOTAMs:
LEX 05/044 LEX RWY 04/22 CLSD 1805191741-1805200800
LEX 05/045 LEX TWY A, C, TWY G BTN RWY 04/22 AND TWY A CLSD 1805191808-1805200200
LEX 05/046 LEX AD AP CLSD 1805191832-1805200100
LEX 05/049 LEX TWY A CLSD 1805191925-1805200359
LEX 05/050 LEX TWY A, C, TWY G BTN RWY 04/22 AND TWY A CLSD 1805191934-1805200359
LEX 05/047 LEX NAV ILS RWY 22 OUT OF SERVICE 1805191904-1805202000EST

Metars:
KLEX 191842Z 25017G26KT 3SM R04/3500VP6000FT VCTS -RA SCT016 BKN033 OVC095 22/19 A2997 RMK AO2 PK WND 26026/1841 LTG DSNT SW P0004 T02170189=
KLEX 191803Z 21009G15KT 9SM -RA SCT017 BKN045 OVC070 22/19 A2997 RMK AO2 LTG DSNT N AND SW P0000 T02170194=
KLEX 191754Z 21005KT 10SM -RA SCT013 BKN024 OVC065 22/20 A2997 RMK AO2 RAB1656 SLP143 P0102 60108 T02170200 10244 20194 55000=
KLEX 191750Z 20004KT 5SM -RA BR SCT016 BKN029 OVC060 22/20 A2997 RMK AO2 RAB1656 P0102=
KLEX 191743Z 21006G17KT 1SM R04/3500VP6000FT +RA BR BKN015 BKN025 OVC060 21/19 A2997 RMK AO2 RAB1656 P0100 T02110189=
KLEX 191733Z VRB04KT 1/2SM R04/1600VP6000FT +RA BKN015 BKN025 OVC033 21/18 A2998 RMK AO2 RAB1656 P0083 T02060178=
KLEX 191701Z 20004KT 2 1/2SM R04/6000VP6000FT +RA BKN019 BKN028 OVC050 21/18 A2997 RMK AO2 RAB1656 P0009 T02110183=
KLEX 191654Z 18014G19KT 10SM BKN020 BKN029 23/19 A2997 RMK AO2 SLP141 T02280189=
KLEX 191554Z 21011G17KT 10SM FEW012 SCT018 BKN025 23/19 A2997 RMK AO2 SLP142 T02330194=
KLEX 191549Z 22008KT 10SM FEW014 SCT027 BKN032 23/20 A2997 RMK AO2=
KLEX 191539Z 21009KT 10SM FEW012 BKN027 OVC033 22/19 A2998 RMK AO2 T02220194=
KLEX 191520Z 20010KT 10SM FEW012 OVC030 22/19 A2998 RMK AO2 T02220194=
KLEX 191454Z 19010KT 10SM FEW012 BKN023 OVC032 21/19 A2998 RMK AO2 SLP144 60006 T02110194 51003=
KLEX 191447Z 20010KT 10SM SCT012 BKN026 OVC030 22/19 A2998 RMK AO2 T02170194=
KLEX 191423Z 19008KT 10SM BKN014 OVC021 21/19 A2998 RMK AO2 T02110189 $=
KLEX 191354Z 19010KT 10SM FEW007 OVC016 21/19 A2997 RMK AO2 RAE50 SLP143 P0000 T02060189=
Aircraft Registration Data New!
Registration mark
N916XJ
Country of Registration
United States
Date of Registration
CqmAdhejhphfnekAg Subscribe to unlock
Manufacturer
BOMBARDIER INC
Aircraft Model / Type
CL-600-2D24
Number of Seats
ICAO Aircraft Type
CRJ9
Year of Manufacture
Serial Number
Aircraft Address / Mode S Code (HEX)
Engine Count
Engine Manufacturer
Engine Model
Engine Type
Pounds of Thrust
Main Owner
Ehgcllngdm d licgik npAkAegnnjpmhdljemfbi gbelhnfAfelnjglmijllA ckikcncfikncqi jhpklejeqcqkiqbffkihlblfkh fidqpqbec Subscribe to unlock
Incident Facts

Date of incident
May 19, 2018

Classification
Incident

Flight number
DL-3359

Aircraft Registration
N916XJ

ICAO Type Designator
CRJ9

Airport ICAO Code
KLEX

This article is published under license from Avherald.com. © of text by Avherald.com.
Article source

You can read 4 more free articles without a subscription.

Subscribe now and continue reading without any limits!

Are you a subscriber?
Login
Subscribe

Read unlimited articles and receive our daily update briefing. Gain better insights into what is happening in commercial aviation safety.

Free newsletter

Want to know more and stay ahead? Get our free weekly newsletter and join 4946 existing subscribers.

By subscribing, you accept our terms and conditions and confirm that you've read our privacy policy.

Send tip

Support AeroInside by sending a small tip amount.

Related articles

Newest articles

Subscribe today

Are you researching aviation incidents? Get access to AeroInside Insights, unlimited read access and receive the daily newsletter.

Pick your plan and subscribe

Partner

Blockaviation logo

A new way to document and demonstrate airworthiness compliance and aircraft value. Find out more.

Virtual Speech logo

ELITE Simulation Solutions is a leading global provider of Flight Simulation Training Devices, IFR training software as well as flight controls and related services. Find out more.

Get updates

Never miss an article from AeroInside. Subscribe to our free weekly newsletter and join 4946 existing subscribers.

By subscribing, you accept our terms and conditions and that you've read our privacy policy.

AeroInside Blog
Popular aircraft
Airbus A320
Boeing 737-800
Boeing 737-800 MAX
Popular airlines
American Airlines
United
Delta
Air Canada
Lufthansa
British Airways